YSSY

Sydney Airport

Airport
ICAO code
YSSY
IATA Code
SYD
Summary
ICAO Region
APAC
ICAO Territory
Location

Mascot, New South Wales

Serving
Sydney
Elevation
21 ft
Coordinates
33° 56' 23" S , 151° 10' 32" E
KCC
Airport BS
Bird Strike
Metar
Observation
YSSY 070230Z 04009KT CAVOK 25/15 Q1003
Station
Sydney Airport
Date/Time
2022-12-07 02:30:00
Wind direction
40°
Wind speed
09 kts
Lowest cloud amount
clouds and visibility OK
Temperature
25°C
Dew point
15°C
Humidity
53%
QNH
1003 hPa
Weather condition
n/a

SKYbrary Partners:

Safety knowledge contributed by: